^^
Datos históricos de la estación: Murcia-Puente Tocinos
Diario Informe para Marzo 13, 2019 Unidades:  Ambas    Inglés   Métrico
Diario Semanal Mensual Anual Configurable
  Máximo: Mínimo: Media:
Temperatura: 72.7 °F /  22.6 °C 52.9 °F /  11.6 °C 61.3 °F /  16.3 °C
Punto de rocio: 51.3 °F /  10.7 °C 37.6 °F /  3.1 °C 46.2 °F /  7.9 °C
Humedad: 80% 28% 60%
Velocidad viento: 15mph /  24.1km/h - 7mph /  11.2km/h
Racha viento: 29mph /  46.7km/h - -
Viento- - South
Presión: 30.3 in /  1026.4 hPa 30.1 in /  1018.0 hPa -
Precipitación: 0 in /  0.0 mm    
Historical Graphs
 
 
Tabla de datos para Marzo 13, 2019
Hora Temperatura Punto de rocio Presión Viento Velocidad viento Racha viento Humedad Intensidad lluvia(por hora) Nubes
00:00 59.2 °F /  15.1 °C 51.3 °F /  10.7 °C 30.2in /  1021.0hPa SSW 7mph /  11.3km/h 10mph /  16.1km/h 75% 0in /  0.0mm CLR
00:05 59 °F /  15.0 °C 51.1 °F /  10.6 °C 30.2in /  1020.9hPa SSW 6.4mph /  10.3km/h 8.1mph /  13.0km/h 75% 0in /  0.0mm CLR
00:10 58.8 °F /  14.9 °C 51.3 °F /  10.7 °C 30.2in /  1020.9hPa SSW 4.7mph /  7.6km/h 6.9mph /  11.1km/h 76% 0in /  0.0mm CLR
00:15 58.6 °F /  14.8 °C 51.1 °F /  10.6 °C 30.2in /  1020.9hPa SSW 4.7mph /  7.6km/h 6.9mph /  11.1km/h 76% 0in /  0.0mm CLR
00:20 58.6 °F /  14.8 °C 51.1 °F /  10.6 °C 30.1in /  1020.6hPa South 5.4mph /  8.7km/h 5.8mph /  9.3km/h 76% 0in /  0.0mm CLR
00:25 58.6 °F /  14.8 °C 51.1 °F /  10.6 °C 30.1in /  1020.6hPa South 5.4mph /  8.7km/h 9.2mph /  14.8km/h 76% 0in /  0.0mm CLR
00:30 58.3 °F /  14.6 °C 50.7 °F /  10.4 °C 30.1in /  1020.6hPa SSW 5.9mph /  9.5km/h 8.1mph /  13.0km/h 76% 0in /  0.0mm CLR
00:35 57.9 °F /  14.4 °C 50.7 °F /  10.4 °C 30.1in /  1020.5hPa SW 5.9mph /  9.5km/h 6.9mph /  11.1km/h 77% 0in /  0.0mm CLR
00:40 57.9 °F /  14.4 °C 50.7 °F /  10.4 °C 30.1in /  1020.5hPa SW 5.2mph /  8.4km/h 6.9mph /  11.1km/h 77% 0in /  0.0mm CLR
00:45 57.9 °F /  14.4 °C 50.7 °F /  10.4 °C 30.1in /  1020.5hPa WSW 5.2mph /  8.4km/h 4.7mph /  7.6km/h 77% 0in /  0.0mm CLR
00:50 57.7 °F /  14.3 °C 50.5 °F /  10.3 °C 30.1in /  1020.4hPa SW 4.3mph /  6.9km/h 5.8mph /  9.3km/h 77% 0in /  0.0mm CLR
00:55 57.7 °F /  14.3 °C 50.5 °F /  10.3 °C 30.1in /  1020.4hPa South 4.3mph /  6.9km/h 5.8mph /  9.3km/h 77% 0in /  0.0mm CLR
01:00 57.7 °F /  14.3 °C 50.5 °F /  10.3 °C 30.1in /  1020.4hPa South 5mph /  8.0km/h 8mph /  12.9km/h 77% 0in /  0.0mm CLR
01:05 57.6 °F /  14.2 °C 50.7 °F /  10.4 °C 30.1in /  1020.1hPa South 4mph /  6.4km/h 8.1mph /  13.0km/h 78% 0in /  0.0mm CLR
01:10 57 °F /  13.9 °C 50.2 °F /  10.1 °C 30.1in /  1020.1hPa SSW 5.9mph /  9.5km/h 9.2mph /  14.8km/h 78% 0in /  0.0mm CLR
01:15 56.8 °F /  13.8 °C 50.2 °F /  10.1 °C 30.1in /  1020.1hPa South 5.9mph /  9.5km/h 4.7mph /  7.6km/h 78% 0in /  0.0mm CLR
01:20 56.8 °F /  13.8 °C 50.4 °F /  10.2 °C 30.1in /  1020.0hPa South 4.7mph /  7.6km/h 4.6mph /  7.4km/h 79% 0in /  0.0mm CLR
01:25 56.7 °F /  13.7 °C 50.2 °F /  10.1 °C 30.1in /  1020.0hPa SSW 4.7mph /  7.6km/h 6.9mph /  11.1km/h 79% 0in /  0.0mm CLR
01:30 56.7 °F /  13.7 °C 50.2 °F /  10.1 °C 30.1in /  1020.0hPa SW 3.6mph /  5.8km/h 5.8mph /  9.3km/h 79% 0in /  0.0mm CLR
01:35 56.8 °F /  13.8 °C 50.4 °F /  10.2 °C 30.1in /  1019.8hPa SSW 3.6mph /  5.8km/h 5.8mph /  9.3km/h 79% 0in /  0.0mm CLR
01:40 57 °F /  13.9 °C 50.2 °F /  10.1 °C 30.1in /  1019.8hPa SW 4mph /  6.4km/h 6.9mph /  11.1km/h 78% 0in /  0.0mm CLR
01:45 57 °F /  13.9 °C 50.2 °F /  10.1 °C 30.1in /  1019.8hPa SSW 4mph /  6.4km/h 4.6mph /  7.4km/h 78% 0in /  0.0mm CLR
01:50 57 °F /  13.9 °C 50.2 °F /  10.1 °C 30.1in /  1019.8hPa SW 3.6mph /  5.8km/h 5.8mph /  9.3km/h 78% 0in /  0.0mm CLR
01:55 57.2 °F /  14.0 °C 50.2 °F /  10.1 °C 30.1in /  1019.8hPa WSW 3.6mph /  5.8km/h 4.6mph /  7.4km/h 77% 0in /  0.0mm CLR
02:00 57.2 °F /  14.0 °C 50.2 °F /  10.1 °C 30.1in /  1019.8hPa WSW 2mph /  3.2km/h 5mph /  8.0km/h 77% 0in /  0.0mm CLR
02:05 57.2 °F /  14.0 °C 50.2 °F /  10.1 °C 30.1in /  1019.8hPa SW 2.9mph /  4.7km/h 5.8mph /  9.3km/h 77% 0in /  0.0mm CLR
02:10 57.2 °F /  14.0 °C 50.2 °F /  10.1 °C 30.1in /  1019.8hPa SSW 2.9mph /  4.7km/h 5.9mph /  9.5km/h 77% 0in /  0.0mm CLR
02:15 57.2 °F /  14.0 °C 50.2 °F /  10.1 °C 30.1in /  1019.8hPa SW 2.9mph /  4.7km/h 6.9mph /  11.1km/h 77% 0in /  0.0mm CLR
02:20 57.4 °F /  14.1 °C 50.2 °F /  10.1 °C 30.1in /  1019.7hPa SSW 4.7mph /  7.6km/h 9.2mph /  14.8km/h 77% 0in /  0.0mm CLR
02:25 57.4 °F /  14.1 °C 50.2 °F /  10.1 °C 30.1in /  1019.7hPa SSW 4.7mph /  7.6km/h 8.1mph /  13.0km/h 77% 0in /  0.0mm CLR
02:30 57.4 °F /  14.1 °C 50.2 °F /  10.1 °C 30.1in /  1019.7hPa SSW 5.4mph /  8.7km/h 9.2mph /  14.8km/h 77% 0in /  0.0mm CLR
02:35 57.2 °F /  14.0 °C 50 °F /  10.0 °C 30.1in /  1019.5hPa SSW 6mph /  9.7km/h 9mph /  14.5km/h 77% 0in /  0.0mm CLR
02:40 56.8 °F /  13.8 °C 49.6 °F /  9.8 °C 30.1in /  1019.5hPa SSW 5.4mph /  8.7km/h 6.9mph /  11.1km/h 77% 0in /  0.0mm CLR
02:45 56.8 °F /  13.8 °C 49.6 °F /  9.8 °C 30.1in /  1019.5hPa South 5.4mph /  8.7km/h 6.9mph /  11.1km/h 77% 0in /  0.0mm CLR
02:50 56.7 °F /  13.7 °C 49.8 °F /  9.9 °C 30.1in /  1019.5hPa South 5.2mph /  8.4km/h 5.8mph /  9.3km/h 78% 0in /  0.0mm CLR
02:55 56.5 °F /  13.6 °C 49.6 °F /  9.8 °C 30.1in /  1019.5hPa SSE 5.2mph /  8.4km/h 7.4mph /  11.9km/h 78% 0in /  0.0mm CLR
03:00 56.1 °F /  13.4 °C 49.6 °F /  9.8 °C 30.1in /  1019.5hPa South 5mph /  8.0km/h 9mph /  14.5km/h 79% 0in /  0.0mm CLR
03:05 55.8 °F /  13.2 °C 49.6 °F /  9.8 °C 30.1in /  1019.1hPa SSW 5.2mph /  8.4km/h 9.2mph /  14.8km/h 80% 0in /  0.0mm CLR
03:10 55.8 °F /  13.2 °C 49.6 °F /  9.8 °C 30.1in /  1019.1hPa SW 6.2mph /  10.0km/h 8.1mph /  13.0km/h 80% 0in /  0.0mm CLR
03:15 55.8 °F /  13.2 °C 49.6 °F /  9.8 °C 30.1in /  1019.1hPa SW 6.2mph /  10.0km/h 5.8mph /  9.3km/h 80% 0in /  0.0mm CLR
03:20 55.8 °F /  13.2 °C 49.3 °F /  9.6 °C 30.1in /  1018.8hPa SW 4.3mph /  6.9km/h 5.9mph /  9.5km/h 79% 0in /  0.0mm CLR
03:25 55.9 °F /  13.3 °C 49.5 °F /  9.7 °C 30.1in /  1018.8hPa WSW 4.3mph /  6.9km/h 4.6mph /  7.4km/h 79% 0in /  0.0mm CLR
03:30 55.9 °F /  13.3 °C 49.3 °F /  9.6 °C 30.1in /  1018.8hPa SW 3.6mph /  5.8km/h 4.6mph /  7.4km/h 78% 0in /  0.0mm CLR
03:35 55.9 °F /  13.3 °C 49.3 °F /  9.6 °C 30.1in /  1018.6hPa SW 3.6mph /  5.8km/h 4.6mph /  7.4km/h 78% 0in /  0.0mm CLR
03:40 56.1 °F /  13.4 °C 49.5 °F /  9.7 °C 30.1in /  1018.6hPa WSW 2.4mph /  3.9km/h 4.6mph /  7.4km/h 78% 0in /  0.0mm CLR
03:45 55.9 °F /  13.3 °C 49.3 °F /  9.6 °C 30.1in /  1018.6hPa WSW 2.4mph /  3.9km/h 2.4mph /  3.9km/h 78% 0in /  0.0mm CLR
03:50 55.8 °F /  13.2 °C 48.9 °F /  9.4 °C 30.1in /  1018.6hPa WSW 2.4mph /  3.9km/h 2.4mph /  3.9km/h 78% 0in /  0.0mm CLR
03:55 55.8 °F /  13.2 °C 49.3 °F /  9.6 °C 30.1in /  1018.6hPa West 2.4mph /  3.9km/h 4.6mph /  7.4km/h 79% 0in /  0.0mm CLR
04:00 55.6 °F /  13.1 °C 49.3 °F /  9.6 °C 30.1in /  1018.6hPa West 2mph /  3.2km/h 4mph /  6.4km/h 79% 0in /  0.0mm CLR
04:05 55.2 °F /  12.9 °C 48.7 °F /  9.3 °C 30.1in /  1018.3hPa West 2.4mph /  3.9km/h   79% 0in /  0.0mm CLR
04:10 55 °F /  12.8 °C 48 °F /  8.9 °C 30.1in /  1018.3hPa SE 1.4mph /  2.3km/h 6.2mph /  10.0km/h 77% 0in /  0.0mm CLR
04:15 54.1 °F /  12.3 °C 47.5 °F /  8.6 °C 30.1in /  1018.3hPa SSE 1.4mph /  2.3km/h 6.9mph /  11.1km/h 78% 0in /  0.0mm CLR
04:20 54 °F /  12.2 °C 47.8 °F /  8.8 °C 30.1in /  1018.1hPa SSW 5.2mph /  8.4km/h 6.9mph /  11.1km/h 80% 0in /  0.0mm CLR
04:25 54.1 °F /  12.3 °C 48 °F /  8.9 °C 30.1in /  1018.1hPa South 5.2mph /  8.4km/h 4.7mph /  7.6km/h 80% 0in /  0.0mm CLR
04:30 54.5 °F /  12.5 °C 48.6 °F /  9.2 °C 30.1in /  1018.1hPa South 4mph /  6.4km/h 4.6mph /  7.4km/h 80% 0in /  0.0mm CLR
04:35 54.9 °F /  12.7 °C 48.6 °F /  9.2 °C 30.1in /  1018.0hPa SSE 4mph /  6.4km/h 6.9mph /  11.1km/h 79% 0in /  0.0mm CLR
04:40 54.7 °F /  12.6 °C 48 °F /  8.9 °C 30.1in /  1018.0hPa SSE 4.3mph /  6.9km/h 5.8mph /  9.3km/h 78% 0in /  0.0mm CLR
04:45 54.3 °F /  12.4 °C 47.7 °F /  8.7 °C 30.1in /  1018.0hPa South 4.3mph /  6.9km/h 6.9mph /  11.1km/h 78% 0in /  0.0mm CLR
04:50 54.1 °F /  12.3 °C 47.5 °F /  8.6 °C 30.1in /  1018.0hPa South 3.6mph /  5.8km/h 4.6mph /  7.4km/h 78% 0in /  0.0mm CLR
04:55 54.1 °F /  12.3 °C 47.8 °F /  8.8 °C 30.1in /  1018.0hPa South 3.6mph /  5.8km/h 4.6mph /  7.4km/h 79% 0in /  0.0mm CLR
05:00 54.3 °F /  12.4 °C 47.8 °F /  8.8 °C 30.1in /  1018.0hPa SSW 3mph /  4.8km/h 5mph /  8.0km/h 79% 0in /  0.0mm CLR
05:05 54.3 °F /  12.4 °C 47.7 °F /  8.7 °C 30.1in /  1018.0hPa South 3.1mph /  5.0km/h 5.8mph /  9.3km/h 78% 0in /  0.0mm CLR
05:10 54.5 °F /  12.5 °C 47.8 °F /  8.8 °C 30.1in /  1018.0hPa SW 3.6mph /  5.8km/h 4.6mph /  7.4km/h 78% 0in /  0.0mm CLR
05:15 54.9 °F /  12.7 °C 47.8 °F /  8.8 °C 30.1in /  1018.0hPa SSW 3.6mph /  5.8km/h 6.9mph /  11.1km/h 77% 0in /  0.0mm CLR
05:20 54.9 °F /  12.7 °C 47.5 °F /  8.6 °C 30.1in /  1018.0hPa SSW 4.7mph /  7.6km/h 6.9mph /  11.1km/h 76% 0in /  0.0mm CLR
05:25 55 °F /  12.8 °C 47.7 °F /  8.7 °C 30.1in /  1018.0hPa South 4.7mph /  7.6km/h 8.1mph /  13.0km/h 76% 0in /  0.0mm CLR
05:30 54.9 °F /  12.7 °C 47.5 °F /  8.6 °C 30.1in /  1018.0hPa South 5.2mph /  8.4km/h 6.9mph /  11.1km/h 76% 0in /  0.0mm CLR
05:35 54.7 °F /  12.6 °C 47.3 °F /  8.5 °C 30.1in /  1018.0hPa SSW 5.2mph /  8.4km/h 5.8mph /  9.3km/h 76% 0in /  0.0mm CLR
05:40 54.7 °F /  12.6 °C 47.3 °F /  8.5 °C 30.1in /  1018.0hPa SSW 4.3mph /  6.9km/h 4.7mph /  7.6km/h 76% 0in /  0.0mm CLR
05:45 54.7 °F /  12.6 °C 46.9 °F /  8.3 °C 30.1in /  1018.0hPa South 4.3mph /  6.9km/h 4.7mph /  7.6km/h 75% 0in /  0.0mm CLR
05:50 54.9 °F /  12.7 °C 47.1 °F /  8.4 °C 30.1in /  1018.1hPa South 3.6mph /  5.8km/h 4.6mph /  7.4km/h 75% 0in /  0.0mm CLR
05:55 54.9 °F /  12.7 °C 46.8 °F /  8.2 °C 30.1in /  1018.1hPa South 3.6mph /  5.8km/h 4.6mph /  7.4km/h 74% 0in /  0.0mm CLR
06:00 54.9 °F /  12.7 °C 46.8 °F /  8.2 °C 30.1in /  1018.1hPa South 3mph /  4.8km/h 6mph /  9.7km/h 74% 0in /  0.0mm CLR
06:05 55 °F /  12.8 °C 46.6 °F /  8.1 °C 30.1in /  1018.1hPa SSW 3.6mph /  5.8km/h 5.8mph /  9.3km/h 73% 0in /  0.0mm CLR
06:10 55 °F /  12.8 °C 46.6 °F /  8.1 °C 30.1in /  1018.1hPa SSW 3.1mph /  5.0km/h 4.6mph /  7.4km/h 73% 0in /  0.0mm CLR
06:15 55.2 °F /  12.9 °C 46.8 °F /  8.2 °C 30.1in /  1018.1hPa SW 3.1mph /  5.0km/h 4.6mph /  7.4km/h 73% 0in /  0.0mm CLR
06:20 55.2 °F /  12.9 °C 46.2 °F /  7.9 °C 30.1in /  1018.4hPa WSW 3.1mph /  5.0km/h 5.8mph /  9.3km/h 72% 0in /  0.0mm CLR
06:25 55.6 °F /  13.1 °C 46.2 °F /  7.9 °C 30.1in /  1018.4hPa WSW 3.1mph /  5.0km/h 5.8mph /  9.3km/h 71% 0in /  0.0mm CLR
06:30 55.8 °F /  13.2 °C 46 °F /  7.8 °C 30.1in /  1018.4hPa SW 4mph /  6.4km/h 4.6mph /  7.4km/h 70% 0in /  0.0mm CLR
06:35 55.9 °F /  13.3 °C 46.2 °F /  7.9 °C 30.1in /  1018.4hPa SW 4mph /  6.4km/h 2.4mph /  3.9km/h 70% 0in /  0.0mm CLR
06:40 55.9 °F /  13.3 °C 46.2 °F /  7.9 °C 30.1in /  1018.4hPa SW 2.4mph /  3.9km/h 4mph /  6.4km/h 70% 0in /  0.0mm CLR
06:45 55.8 °F /  13.2 °C 46 °F /  7.8 °C 30.1in /  1018.4hPa South 2.4mph /  3.9km/h 4.6mph /  7.4km/h 70% 0in /  0.0mm CLR
06:50 55.6 °F /  13.1 °C 45.9 °F /  7.7 °C 30.1in /  1018.5hPa South 3.1mph /  5.0km/h 5.8mph /  9.3km/h 70% 0in /  0.0mm CLR
06:55 55.2 °F /  12.9 °C 46 °F /  7.8 °C 30.1in /  1018.5hPa South 3.1mph /  5.0km/h 4.6mph /  7.4km/h 71% 0in /  0.0mm CLR
07:00 55.2 °F /  12.9 °C 46 °F /  7.8 °C 30.1in /  1018.5hPa South 3mph /  4.8km/h 6mph /  9.7km/h 71% 0in /  0.0mm CLR
07:05 55 °F /  12.8 °C 45.9 °F /  7.7 °C 30.1in /  1018.4hPa ESE 3.1mph /  5.0km/h 6.9mph /  11.1km/h 71% 0in /  0.0mm CLR
07:10 54.5 °F /  12.5 °C 45.7 °F /  7.6 °C 30.1in /  1018.4hPa SSE 4.7mph /  7.6km/h 6.9mph /  11.1km/h 72% 0in /  0.0mm CLR
07:15 53.8 °F /  12.1 °C 45.3 °F /  7.4 °C 30.1in /  1018.4hPa SSE 4.7mph /  7.6km/h 6.9mph /  11.1km/h 73% 0in /  0.0mm CLR
07:20 53.2 °F /  11.8 °C 45.1 °F /  7.3 °C 30.1in /  1018.7hPa SSE 4.7mph /  7.6km/h 6.9mph /  11.1km/h 74% 0in /  0.0mm CLR
07:25 52.9 °F /  11.6 °C 45.1 °F /  7.3 °C 30.1in /  1018.7hPa South 4.7mph /  7.6km/h 4.6mph /  7.4km/h 75% 0in /  0.0mm CLR
07:30 53.1 °F /  11.7 °C 45.7 °F /  7.6 °C 30.1in /  1018.7hPa SSE 4.3mph /  6.9km/h 8.1mph /  13.0km/h 76% 0in /  0.0mm CLR
07:35 53.2 °F /  11.8 °C 45.5 °F /  7.5 °C 30.1in /  1018.9hPa South 4.3mph /  6.9km/h 7.6mph /  12.2km/h 75% 0in /  0.0mm CLR
07:40 53.6 °F /  12.0 °C 45.5 °F /  7.5 °C 30.1in /  1018.9hPa South 5.4mph /  8.7km/h 5.9mph /  9.5km/h 74% 0in /  0.0mm CLR
07:45 54.1 °F /  12.3 °C 45.7 °F /  7.6 °C 30.1in /  1018.9hPa South 5.4mph /  8.7km/h 6.9mph /  11.1km/h 73% 0in /  0.0mm CLR
07:50 54.5 °F /  12.5 °C 45.7 °F /  7.6 °C 30.1in /  1019.2hPa SSE 4.7mph /  7.6km/h 5.8mph /  9.3km/h 72% 0in /  0.0mm CLR
07:55 54.9 °F /  12.7 °C 46 °F /  7.8 °C 30.1in /  1019.2hPa SSW 4.7mph /  7.6km/h 4.6mph /  7.4km/h 72% 0in /  0.0mm CLR
08:00 55.2 °F /  12.9 °C 46 °F /  7.8 °C 30.1in /  1019.2hPa SSW 2mph /  3.2km/h 5mph /  8.0km/h 71% 0in /  0.0mm CLR
08:05 55.9 °F /  13.3 °C 46.2 °F /  7.9 °C 30.1in /  1019.5hPa SSW 2.9mph /  4.7km/h 2.4mph /  3.9km/h 70% 0in /  0.0mm CLR
08:10 56.3 °F /  13.5 °C 46.2 °F /  7.9 °C 30.1in /  1019.5hPa SSW 2mph /  3.2km/h   69% 0in /  0.0mm CLR
08:15 56.8 °F /  13.8 °C 46.4 °F /  8.0 °C 30.1in /  1019.5hPa NNW 2mph /  3.2km/h 6.2mph /  10.0km/h 68% 0in /  0.0mm CLR
08:20 57.4 °F /  14.1 °C 46.9 °F /  8.3 °C 30.1in /  1019.9hPa SSW 2mph /  3.2km/h 5.8mph /  9.3km/h 68% 0in /  0.0mm CLR
08:25 57.9 °F /  14.4 °C 46.6 °F /  8.1 °C 30.1in /  1019.9hPa WNW 2mph /  3.2km/h 4.6mph /  7.4km/h 66% 0in /  0.0mm CLR
08:30 58.6 °F /  14.8 °C 46.9 °F /  8.3 °C 30.1in /  1019.9hPa WNW 3.1mph /  5.0km/h 3.5mph /  5.6km/h 65% 0in /  0.0mm CLR
08:35 59.2 °F /  15.1 °C 46.9 °F /  8.3 °C 30.1in /  1019.9hPa West 3.1mph /  5.0km/h 4.6mph /  7.4km/h 64% 0in /  0.0mm CLR
08:40 59.7 °F /  15.4 °C 47.1 °F /  8.4 °C 30.1in /  1019.9hPa West 2.4mph /  3.9km/h 5.8mph /  9.3km/h 63% 0in /  0.0mm CLR
08:45 60.3 °F /  15.7 °C 46.8 °F /  8.2 °C 30.1in /  1019.9hPa WNW 2.4mph /  3.9km/h 7.4mph /  11.9km/h 61% 0in /  0.0mm CLR
08:50 61.2 °F /  16.2 °C 46.8 °F /  8.2 °C 30.1in /  1020.1hPa WNW 4mph /  6.4km/h 6.9mph /  11.1km/h 59% 0in /  0.0mm CLR
08:55 62.1 °F /  16.7 °C 46.6 °F /  8.1 °C 30.1in /  1020.1hPa WNW 4mph /  6.4km/h 6.9mph /  11.1km/h 57% 0in /  0.0mm CLR
09:00 62.4 °F /  16.9 °C 46 °F /  7.8 °C 30.1in /  1020.1hPa WNW 6mph /  9.7km/h 12mph /  19.3km/h 55% 0in /  0.0mm CLR
09:05 63 °F /  17.2 °C 46 °F /  7.8 °C 30.1in /  1020.1hPa WNW 5.9mph /  9.5km/h 8.1mph /  13.0km/h 54% 0in /  0.0mm CLR
09:10 63.3 °F /  17.4 °C 45.9 °F /  7.7 °C 30.1in /  1020.1hPa WNW 5.9mph /  9.5km/h 9.2mph /  14.8km/h 53% 0in /  0.0mm CLR
09:15 63.9 °F /  17.7 °C 45.3 °F /  7.4 °C 30.1in /  1020.1hPa WNW 5.9mph /  9.5km/h 12.7mph /  20.4km/h 51% 0in /  0.0mm CLR
09:20 64.8 °F /  18.2 °C 45.1 °F /  7.3 °C 30.1in /  1020.2hPa WNW 7.4mph /  11.9km/h 12.7mph /  20.4km/h 49% 0in /  0.0mm CLR
09:25 65.3 °F /  18.5 °C 45.1 °F /  7.3 °C 30.1in /  1020.2hPa NW 7.4mph /  11.9km/h 6.9mph /  11.1km/h 48% 0in /  0.0mm CLR
09:30 65.7 °F /  18.7 °C 45.3 °F /  7.4 °C 30.1in /  1020.2hPa NW 7.4mph /  11.9km/h 14mph /  22.5km/h 48% 0in /  0.0mm CLR
09:35 65.8 °F /  18.8 °C 45 °F /  7.2 °C 30.1in /  1020.5hPa NW 7.4mph /  11.9km/h 13.8mph /  22.2km/h 47% 0in /  0.0mm CLR
09:40 66 °F /  18.9 °C 45.1 °F /  7.3 °C 30.1in /  1020.5hPa NW 8.7mph /  14.0km/h 15mph /  24.1km/h 47% 0in /  0.0mm CLR
09:45 66.4 °F /  19.1 °C 45 °F /  7.2 °C 30.1in /  1020.5hPa NW 8.7mph /  14.0km/h 13.8mph /  22.2km/h 46% 0in /  0.0mm CLR
09:50 66.6 °F /  19.2 °C 44.4 °F /  6.9 °C 30.1in /  1020.5hPa NW 10mph /  16.1km/h 18.4mph /  29.6km/h 45% 0in /  0.0mm CLR
09:55 66.7 °F /  19.3 °C 44.8 °F /  7.1 °C 30.1in /  1020.5hPa WNW 10mph /  16.1km/h 19.6mph /  31.5km/h 45% 0in /  0.0mm CLR
10:00 66.9 °F /  19.4 °C 45 °F /  7.2 °C 30.1in /  1020.5hPa NW 13mph /  20.9km/h 21mph /  33.8km/h 45% 0in /  0.0mm CLR
10:05 67.3 °F /  19.6 °C 45.1 °F /  7.3 °C 30.1in /  1020.6hPa NNW 12.5mph /  20.1km/h 20.7mph /  33.3km/h 45% 0in /  0.0mm CLR
10:10 67.1 °F /  19.5 °C 44.4 °F /  6.9 °C 30.1in /  1020.6hPa WNW 11.8mph /  19.0km/h 17.3mph /  27.8km/h 44% 0in /  0.0mm CLR
10:15 66.9 °F /  19.4 °C 44.2 °F /  6.8 °C 30.1in /  1020.6hPa NW 11.8mph /  19.0km/h 18.4mph /  29.6km/h 44% 0in /  0.0mm CLR
10:20 66.9 °F /  19.4 °C 45 °F /  7.2 °C 30.2in /  1021.1hPa WNW 12.3mph /  19.8km/h 17.3mph /  27.8km/h 45% 0in /  0.0mm CLR
10:25 66.9 °F /  19.4 °C 45 °F /  7.2 °C 30.2in /  1021.1hPa WNW 12.3mph /  19.8km/h 11.5mph /  18.5km/h 45% 0in /  0.0mm CLR
10:30 66.7 °F /  19.3 °C 44.8 °F /  7.1 °C 30.2in /  1021.1hPa NW 9.7mph /  15.6km/h 17.3mph /  27.8km/h 45% 0in /  0.0mm CLR
10:35 66.6 °F /  19.2 °C 44.4 °F /  6.9 °C 30.2in /  1021.3hPa NW 9.7mph /  15.6km/h 13.8mph /  22.2km/h 45% 0in /  0.0mm CLR
10:40 66.6 °F /  19.2 °C 44.4 °F /  6.9 °C 30.2in /  1021.3hPa NNW 10.7mph /  17.2km/h 18.4mph /  29.6km/h 45% 0in /  0.0mm CLR
10:45 66.4 °F /  19.1 °C 44.4 °F /  6.9 °C 30.2in /  1021.3hPa NW 10.7mph /  17.2km/h 20.7mph /  33.3km/h 45% 0in /  0.0mm CLR
10:50 66.4 °F /  19.1 °C 44.4 °F /  6.9 °C 30.2in /  1021.3hPa WNW 12.3mph /  19.8km/h 13.8mph /  22.2km/h 45% 0in /  0.0mm CLR
10:55 66.4 °F /  19.1 °C 43.9 °F /  6.6 °C 30.2in /  1021.3hPa WNW 12.3mph /  19.8km/h 18.4mph /  29.6km/h 44% 0in /  0.0mm CLR
11:00 66.4 °F /  19.1 °C 43.9 °F /  6.6 °C 30.2in /  1021.3hPa NW 12mph /  19.3km/h 20mph /  32.2km/h 44% 0in /  0.0mm CLR
11:05 66.6 °F /  19.2 °C 44.1 °F /  6.7 °C 30.2in /  1021.4hPa WNW 11.4mph /  18.3km/h 15mph /  24.1km/h 44% 0in /  0.0mm CLR
11:10 66.9 °F /  19.4 °C 44.2 °F /  6.8 °C 30.2in /  1021.4hPa West 11.2mph /  18.0km/h 17.3mph /  27.8km/h 44% 0in /  0.0mm CLR
11:15 67.3 °F /  19.6 °C 44.1 °F /  6.7 °C 30.2in /  1021.4hPa NW 11.2mph /  18.0km/h 16.1mph /  25.9km/h 43% 0in /  0.0mm CLR
11:20 67.6 °F /  19.8 °C 44.2 °F /  6.8 °C 30.2in /  1021.2hPa NNW 10.7mph /  17.2km/h 17mph /  27.4km/h 43% 0in /  0.0mm CLR
11:25 67.5 °F /  19.7 °C 43.5 °F /  6.4 °C 30.2in /  1021.2hPa WNW 10.7mph /  17.2km/h 18.4mph /  29.6km/h 42% 0in /  0.0mm CLR
11:30 67.6 °F /  19.8 °C 43.2 °F /  6.2 °C 30.2in /  1021.2hPa WNW 13mph /  20.9km/h 24.2mph /  38.9km/h 41% 0in /  0.0mm CLR
11:35 67.6 °F /  19.8 °C 43.2 °F /  6.2 °C 30.2in /  1021.2hPa NW 13mph /  20.9km/h 23mph /  37.0km/h 41% 0in /  0.0mm CLR
11:40 68 °F /  20.0 °C 43.3 °F /  6.3 °C 30.2in /  1021.2hPa WNW 14.7mph /  23.7km/h 15.9mph /  25.6km/h 41% 0in /  0.0mm CLR
11:45 68.5 °F /  20.3 °C 43.2 °F /  6.2 °C 30.2in /  1021.2hPa WNW 14.7mph /  23.7km/h 19.6mph /  31.5km/h 40% 0in /  0.0mm CLR
11:50 68.7 °F /  20.4 °C 43.3 °F /  6.3 °C 30.2in /  1021.2hPa WNW 10.7mph /  17.2km/h 19.6mph /  31.5km/h 40% 0in /  0.0mm CLR
11:55 69.1 °F /  20.6 °C 43.2 °F /  6.2 °C 30.2in /  1021.2hPa NW 10.7mph /  17.2km/h 15.6mph /  25.1km/h 39% 0in /  0.0mm CLR
12:00 69.3 °F /  20.7 °C 43.2 °F /  6.2 °C 30.2in /  1021.2hPa WNW 13mph /  20.9km/h 22mph /  35.4km/h 39% 0in /  0.0mm CLR
12:05 69.3 °F /  20.7 °C 43.2 °F /  6.2 °C 30.2in /  1021.3hPa WSW 12.5mph /  20.1km/h 13.8mph /  22.2km/h 39% 0in /  0.0mm CLR
12:10 69.3 °F /  20.7 °C 43.2 °F /  6.2 °C 30.2in /  1021.3hPa West 10.7mph /  17.2km/h 9.2mph /  14.8km/h 39% 0in /  0.0mm CLR
12:15 69.6 °F /  20.9 °C 43.5 °F /  6.4 °C 30.2in /  1021.3hPa WNW 10.7mph /  17.2km/h 10.4mph /  16.7km/h 39% 0in /  0.0mm CLR
12:20 70 °F /  21.1 °C 43.2 °F /  6.2 °C 30.2in /  1021.3hPa West 6.4mph /  10.3km/h 13.8mph /  22.2km/h 38% 0in /  0.0mm CLR
12:25 70.3 °F /  21.3 °C 42.8 °F /  6.0 °C 30.2in /  1021.3hPa NNW 6.4mph /  10.3km/h 16.1mph /  25.9km/h 37% 0in /  0.0mm CLR
12:30 70.3 °F /  21.3 °C 42.8 °F /  6.0 °C 30.2in /  1021.3hPa West 10mph /  16.1km/h 12.7mph /  20.4km/h 37% 0in /  0.0mm CLR
12:35 70.3 °F /  21.3 °C 42.8 °F /  6.0 °C 30.2in /  1021.4hPa WNW 10mph /  16.1km/h 21.9mph /  35.2km/h 37% 0in /  0.0mm CLR
12:40 70.7 °F /  21.5 °C 42.4 °F /  5.8 °C 30.2in /  1021.4hPa WNW 11.8mph /  19.0km/h 20.7mph /  33.3km/h 36% 0in /  0.0mm CLR
12:45 71.1 °F /  21.7 °C 42.6 °F /  5.9 °C 30.2in /  1021.4hPa West 11.8mph /  19.0km/h 11.5mph /  18.5km/h 36% 0in /  0.0mm CLR
12:50 71.2 °F /  21.8 °C 42.3 °F /  5.7 °C 30.2in /  1021.5hPa WNW 9.7mph /  15.6km/h 17.3mph /  27.8km/h 35% 0in /  0.0mm CLR
12:55 71.2 °F /  21.8 °C 41.4 °F /  5.2 °C 30.2in /  1021.5hPa WNW 9.7mph /  15.6km/h 26.1mph /  42.0km/h 34% 0in /  0.0mm CLR
13:00 71.1 °F /  21.7 °C 41.2 °F /  5.1 °C 30.2in /  1021.5hPa WNW 14mph /  22.5km/h 29mph /  46.7km/h 34% 0in /  0.0mm CLR
13:05 70.9 °F /  21.6 °C 41.2 °F /  5.1 °C 30.2in /  1021.7hPa NW 14mph /  22.5km/h 21.9mph /  35.2km/h 34% 0in /  0.0mm CLR
13:10 70.7 °F /  21.5 °C 40.8 °F /  4.9 °C 30.2in /  1021.7hPa NW 13.5mph /  21.7km/h 21.9mph /  35.2km/h 34% 0in /  0.0mm CLR
13:15 70.3 °F /  21.3 °C 40.6 °F /  4.8 °C 30.2in /  1021.7hPa NW 13.5mph /  21.7km/h 17.3mph /  27.8km/h 34% 0in /  0.0mm CLR
13:20 70.3 °F /  21.3 °C 40.6 °F /  4.8 °C 30.2in /  1021.6hPa NW 12.5mph /  20.1km/h 17.3mph /  27.8km/h 34% 0in /  0.0mm CLR
13:25 70.9 °F /  21.6 °C 41.2 °F /  5.1 °C 30.2in /  1021.6hPa WNW 12.5mph /  20.1km/h 21.9mph /  35.2km/h 34% 0in /  0.0mm CLR
13:30 70.7 °F /  21.5 °C 40.8 °F /  4.9 °C 30.2in /  1021.6hPa West 13mph /  20.9km/h 23mph /  37.0km/h 34% 0in /  0.0mm CLR
13:35 71.1 °F /  21.7 °C 40.5 °F /  4.7 °C 30.2in /  1021.4hPa WNW 13mph /  20.9km/h 20.7mph /  33.3km/h 33% 0in /  0.0mm CLR
13:40 71.4 °F /  21.9 °C 40.8 °F /  4.9 °C 30.2in /  1021.4hPa NW 13.7mph /  22.0km/h 20.7mph /  33.3km/h 33% 0in /  0.0mm CLR
13:45 71.1 °F /  21.7 °C 40.5 °F /  4.7 °C 30.2in /  1021.4hPa NW 13.7mph /  22.0km/h 17.5mph /  28.2km/h 33% 0in /  0.0mm CLR
13:50 71.1 °F /  21.7 °C 41.4 °F /  5.2 °C 30.2in /  1021.2hPa West 13.7mph /  22.0km/h 17.3mph /  27.8km/h 34% 0in /  0.0mm CLR
13:55 71.2 °F /  21.8 °C 40.6 °F /  4.8 °C 30.2in /  1021.2hPa West 13.7mph /  22.0km/h 20.7mph /  33.3km/h 33% 0in /  0.0mm CLR
14:00 71.4 °F /  21.9 °C 40.8 °F /  4.9 °C 30.2in /  1021.2hPa West 14mph /  22.5km/h 22mph /  35.4km/h 33% 0in /  0.0mm CLR
14:05 71.4 °F /  21.9 °C 40.8 °F /  4.9 °C 30.2in /  1021.0hPa WNW 13.5mph /  21.7km/h 21.9mph /  35.2km/h 33% 0in /  0.0mm CLR
14:10 71.2 °F /  21.8 °C 40.6 °F /  4.8 °C 30.2in /  1021.0hPa WNW 13mph /  20.9km/h 21mph /  33.8km/h 33% 0in /  0.0mm CLR
14:15 71.2 °F /  21.8 °C 39.9 °F /  4.4 °C 30.2in /  1021.0hPa West 13mph /  20.9km/h 22.3mph /  35.9km/h 32% 0in /  0.0mm CLR
14:20 71.4 °F /  21.9 °C 39.9 °F /  4.4 °C 30.1in /  1020.8hPa West 13mph /  20.9km/h 18.4mph /  29.6km/h 32% 0in /  0.0mm CLR
14:25 71.8 °F /  22.1 °C 40.3 °F /  4.6 °C 30.1in /  1020.8hPa West 13mph /  20.9km/h 19.6mph /  31.5km/h 32% 0in /  0.0mm CLR
14:30 72 °F /  22.2 °C 40.5 °F /  4.7 °C 30.1in /  1020.8hPa West 11.8mph /  19.0km/h 19.2mph /  30.9km/h 32% 0in /  0.0mm CLR
14:35 71.4 °F /  21.9 °C 39.9 °F /  4.4 °C 30.1in /  1020.6hPa NW 11.8mph /  19.0km/h 16.1mph /  25.9km/h 32% 0in /  0.0mm CLR
14:40 71.8 °F /  22.1 °C 39.6 °F /  4.2 °C 30.1in /  1020.6hPa West 11.4mph /  18.3km/h 24.2mph /  38.9km/h 31% 0in /  0.0mm CLR
14:45 71.8 °F /  22.1 °C 40.3 °F /  4.6 °C 30.1in /  1020.6hPa WNW 11.4mph /  18.3km/h 18.4mph /  29.6km/h 32% 0in /  0.0mm CLR
14:50 71.8 °F /  22.1 °C 39.6 °F /  4.2 °C 30.1in /  1020.4hPa WNW 12.3mph /  19.8km/h 13.8mph /  22.2km/h 31% 0in /  0.0mm CLR
14:55 71.6 °F /  22.0 °C 39.4 °F /  4.1 °C 30.1in /  1020.4hPa NW 12.3mph /  19.8km/h 16.1mph /  25.9km/h 31% 0in /  0.0mm CLR
15:00 71.8 °F /  22.1 °C 39.6 °F /  4.2 °C 30.1in /  1020.4hPa WNW 10mph /  16.1km/h 17mph /  27.4km/h 31% 0in /  0.0mm CLR
15:05 72 °F /  22.2 °C 39.7 °F /  4.3 °C 30.1in /  1020.3hPa WNW 10mph /  16.1km/h 17.3mph /  27.8km/h 31% 0in /  0.0mm CLR
15:10 72.3 °F /  22.4 °C 39 °F /  3.9 °C 30.1in /  1020.3hPa West 9.2mph /  14.8km/h 23mph /  37.0km/h 30% 0in /  0.0mm CLR
15:15 72.1 °F /  22.3 °C 39 °F /  3.9 °C 30.1in /  1020.3hPa WNW 9.2mph /  14.8km/h 20.7mph /  33.3km/h 30% 0in /  0.0mm CLR
15:20 72.7 °F /  22.6 °C 38.7 °F /  3.7 °C 30.1in /  1020.4hPa WSW 12.5mph /  20.1km/h 18.4mph /  29.6km/h 29% 0in /  0.0mm CLR
15:25 72.7 °F /  22.6 °C 37.8 °F /  3.2 °C 30.1in /  1020.4hPa West 12.5mph /  20.1km/h 24.2mph /  38.9km/h 28% 0in /  0.0mm CLR
15:30 72.5 °F /  22.5 °C 37.6 °F /  3.1 °C 30.1in /  1020.4hPa WNW 13.5mph /  21.7km/h 15mph /  24.1km/h 28% 0in /  0.0mm CLR
15:34 72.7 °F /  22.6 °C 38.7 °F /  3.7 °C 30.1in /  1020.4hPa NNW 13.5mph /  21.7km/h 16.1mph /  25.9km/h 29% 0in /  0.0mm CLR
15:40 72.3 °F /  22.4 °C 46.6 °F /  8.1 °C 30.1in /  1020.4hPa NNW 10.2mph /  16.4km/h 10.4mph /  16.7km/h 40% 0in /  0.0mm CLR
15:45 72.3 °F /  22.4 °C 39.9 °F /  4.4 °C 30.1in /  1020.4hPa ENE 10.2mph /  16.4km/h 10.4mph /  16.7km/h 31% 0in /  0.0mm CLR
15:50 71.2 °F /  21.8 °C 48.2 °F /  9.0 °C 30.1in /  1020.5hPa NE 5.9mph /  9.5km/h 23mph /  37.0km/h 44% 0in /  0.0mm CLR
15:55 69.3 °F /  20.7 °C 49.3 °F /  9.6 °C 30.1in /  1020.5hPa NE 5.9mph /  9.5km/h 23mph /  37.0km/h 49% 0in /  0.0mm CLR
16:00 68.5 °F /  20.3 °C 49.3 °F /  9.6 °C 30.1in /  1020.5hPa NE 15mph /  24.1km/h 21mph /  33.8km/h 50% 0in /  0.0mm CLR
16:05 68.5 °F /  20.3 °C 49.6 °F /  9.8 °C 30.1in /  1020.7hPa ENE 14.5mph /  23.3km/h 19.6mph /  31.5km/h 51% 0in /  0.0mm CLR
16:10 68.4 °F /  20.2 °C 48.6 °F /  9.2 °C 30.1in /  1020.7hPa NE 9.7mph /  15.6km/h 11.5mph /  18.5km/h 49% 0in /  0.0mm CLR
16:15 68.4 °F /  20.2 °C 49.5 °F /  9.7 °C 30.1in /  1020.7hPa ENE 9.7mph /  15.6km/h 10.4mph /  16.7km/h 51% 0in /  0.0mm CLR
16:20 68.4 °F /  20.2 °C 49.5 °F /  9.7 °C 30.1in /  1020.8hPa NE 5.9mph /  9.5km/h 13.8mph /  22.2km/h 51% 0in /  0.0mm CLR
16:25 67.6 °F /  19.8 °C 49.5 °F /  9.7 °C 30.1in /  1020.8hPa ENE 5.9mph /  9.5km/h 16.1mph /  25.9km/h 52% 0in /  0.0mm CLR
16:30 67.3 °F /  19.6 °C 49.6 °F /  9.8 °C 30.1in /  1020.8hPa NE 10.7mph /  17.2km/h 12.7mph /  20.4km/h 53% 0in /  0.0mm CLR
16:35 67.3 °F /  19.6 °C 49.6 °F /  9.8 °C 30.1in /  1020.7hPa NE 10.7mph /  17.2km/h 16.1mph /  25.9km/h 53% 0in /  0.0mm CLR
16:40 67.3 °F /  19.6 °C 49.6 °F /  9.8 °C 30.1in /  1020.7hPa ENE 9.7mph /  15.6km/h 17.3mph /  27.8km/h 53% 0in /  0.0mm CLR
16:45 66.7 °F /  19.3 °C 49.6 °F /  9.8 °C 30.1in /  1020.7hPa NNW 9.7mph /  15.6km/h 11.5mph /  18.5km/h 54% 0in /  0.0mm CLR
16:50 66.9 °F /  19.4 °C 49.3 °F /  9.6 °C 30.1in /  1020.8hPa NE 8.7mph /  14.0km/h 15mph /  24.1km/h 53% 0in /  0.0mm CLR
16:55 66.7 °F /  19.3 °C 49.1 °F /  9.5 °C 30.1in /  1020.8hPa NE 8.7mph /  14.0km/h 12.7mph /  20.4km/h 53% 0in /  0.0mm CLR
17:00 66.7 °F /  19.3 °C 49.1 °F /  9.5 °C 30.1in /  1020.8hPa NE 10mph /  16.1km/h 17mph /  27.4km/h 53% 0in /  0.0mm CLR
17:05 66.4 °F /  19.1 °C 48.7 °F /  9.3 °C 30.2in /  1020.9hPa NNE 10mph /  16.1km/h 17.5mph /  28.2km/h 53% 0in /  0.0mm CLR
17:10 66 °F /  18.9 °C 48.4 °F /  9.1 °C 30.2in /  1020.9hPa ENE 11.4mph /  18.3km/h 16.1mph /  25.9km/h 53% 0in /  0.0mm CLR
17:15 65.8 °F /  18.8 °C 47.7 °F /  8.7 °C 30.2in /  1020.9hPa NE 11.4mph /  18.3km/h 15mph /  24.1km/h 52% 0in /  0.0mm CLR
17:20 66 °F /  18.9 °C 47.8 °F /  8.8 °C 30.2in /  1021.0hPa ENE 11.2mph /  18.0km/h 20.7mph /  33.3km/h 52% 0in /  0.0mm CLR
17:25 65.8 °F /  18.8 °C 47.7 °F /  8.7 °C 30.2in /  1021.0hPa ENE 11.2mph /  18.0km/h 16.1mph /  25.9km/h 52% 0in /  0.0mm CLR
17:30 65.7 °F /  18.7 °C 46.9 °F /  8.3 °C 30.2in /  1021.0hPa ENE 10mph /  16.1km/h 18.4mph /  29.6km/h 51% 0in /  0.0mm CLR
17:35 65.3 °F /  18.5 °C 47.1 °F /  8.4 °C 30.2in /  1021.3hPa ENE 10mph /  16.1km/h 15.9mph /  25.6km/h 52% 0in /  0.0mm CLR
17:40 64.9 °F /  18.3 °C 46.9 °F /  8.3 °C 30.2in /  1021.3hPa NE 11.2mph /  18.0km/h 13.8mph /  22.2km/h 52% 0in /  0.0mm CLR
17:45 64.9 °F /  18.3 °C 46.9 °F /  8.3 °C 30.2in /  1021.3hPa East 11.2mph /  18.0km/h 12.7mph /  20.4km/h 52% 0in /  0.0mm CLR
17:50 64.9 °F /  18.3 °C 46.9 °F /  8.3 °C 30.2in /  1021.4hPa NE 9.7mph /  15.6km/h 15mph /  24.1km/h 52% 0in /  0.0mm CLR
17:55 64.6 °F /  18.1 °C 46.6 °F /  8.1 °C 30.2in /  1021.4hPa NE 9.7mph /  15.6km/h 16.1mph /  25.9km/h 52% 0in /  0.0mm CLR
18:00 64.4 °F /  18.0 °C 46.4 °F /  8.0 °C 30.2in /  1021.4hPa NE 9mph /  14.5km/h 15mph /  24.1km/h 52% 0in /  0.0mm CLR
18:05 64.2 °F /  17.9 °C 46.2 °F /  7.9 °C 30.2in /  1021.7hPa NE 9.7mph /  15.6km/h 11.2mph /  18.0km/h 52% 0in /  0.0mm CLR
18:10 64 °F /  17.8 °C 46 °F /  7.8 °C 30.2in /  1021.7hPa ENE 8.5mph /  13.7km/h 10.4mph /  16.7km/h 52% 0in /  0.0mm CLR
18:15 64 °F /  17.8 °C 46.6 °F /  8.1 °C 30.2in /  1021.7hPa NE 8.5mph /  13.7km/h 16.1mph /  25.9km/h 53% 0in /  0.0mm CLR
18:20 63.9 °F /  17.7 °C 46.4 °F /  8.0 °C 30.2in /  1021.9hPa ENE 9.7mph /  15.6km/h 13.8mph /  22.2km/h 53% 0in /  0.0mm CLR
18:25 63.7 °F /  17.6 °C 46.2 °F /  7.9 °C 30.2in /  1021.9hPa North 9.7mph /  15.6km/h 11.5mph /  18.5km/h 53% 0in /  0.0mm CLR
18:30 63.7 °F /  17.6 °C 46.8 °F /  8.2 °C 30.2in /  1021.9hPa NNE 8.5mph /  13.7km/h 10.4mph /  16.7km/h 54% 0in /  0.0mm CLR
18:35 63.3 °F /  17.4 °C 46.4 °F /  8.0 °C 30.2in /  1022.3hPa NNE 8.5mph /  13.7km/h 12.7mph /  20.4km/h 54% 0in /  0.0mm CLR
18:40 63.3 °F /  17.4 °C 46.4 °F /  8.0 °C 30.2in /  1022.3hPa East 7.4mph /  11.9km/h 8.1mph /  13.0km/h 54% 0in /  0.0mm CLR
18:45 63.1 °F /  17.3 °C 46.8 °F /  8.2 °C 30.2in /  1022.3hPa ESE 7.4mph /  11.9km/h 9.2mph /  14.8km/h 55% 0in /  0.0mm CLR
18:50 62.6 °F /  17.0 °C 46.2 °F /  7.9 °C 30.2in /  1022.5hPa ESE 6.9mph /  11.1km/h 13mph /  20.9km/h 55% 0in /  0.0mm CLR
18:55 62.1 °F /  16.7 °C 46.6 °F /  8.1 °C 30.2in /  1022.5hPa ESE 6.9mph /  11.1km/h 16.1mph /  25.9km/h 57% 0in /  0.0mm CLR
19:00 61.9 °F /  16.6 °C 46.4 °F /  8.0 °C 30.2in /  1022.5hPa ESE 12mph /  19.3km/h 17mph /  27.4km/h 57% 0in /  0.0mm CLR
19:05 61.5 °F /  16.4 °C 46.6 °F /  8.1 °C 30.2in /  1022.8hPa ENE 11.2mph /  18.0km/h 17.3mph /  27.8km/h 58% 0in /  0.0mm CLR
19:10 61.3 °F /  16.3 °C 46.4 °F /  8.0 °C 30.2in /  1022.8hPa ESE 9.2mph /  14.8km/h 16.1mph /  25.9km/h 58% 0in /  0.0mm CLR
19:15 61.2 °F /  16.2 °C 46.8 °F /  8.2 °C 30.2in /  1022.8hPa ESE 9.2mph /  14.8km/h 13.8mph /  22.2km/h 59% 0in /  0.0mm CLR
19:20 61 °F /  16.1 °C 46.6 °F /  8.1 °C 30.2in /  1023.2hPa ENE 8.7mph /  14.0km/h 6.9mph /  11.1km/h 59% 0in /  0.0mm CLR
19:25 60.8 °F /  16.0 °C 46.4 °F /  8.0 °C 30.2in /  1023.2hPa East 8.7mph /  14.0km/h 11.5mph /  18.5km/h 59% 0in /  0.0mm CLR
19:30 60.6 °F /  15.9 °C 46.2 °F /  7.9 °C 30.2in /  1023.2hPa ESE 7.6mph /  12.2km/h 9.2mph /  14.8km/h 59% 0in /  0.0mm CLR
19:35 60.6 °F /  15.9 °C 46.2 °F /  7.9 °C 30.2in /  1023.5hPa East 7.6mph /  12.2km/h 6.9mph /  11.1km/h 59% 0in /  0.0mm CLR
19:40 60.4 °F /  15.8 °C 46.6 °F /  8.1 °C 30.2in /  1023.5hPa ESE 5.9mph /  9.5km/h 9.2mph /  14.8km/h 60% 0in /  0.0mm CLR
19:45 60.3 °F /  15.7 °C 46.8 °F /  8.2 °C 30.2in /  1023.5hPa ESE 5.9mph /  9.5km/h 10.4mph /  16.7km/h 61% 0in /  0.0mm CLR
19:50 60.1 °F /  15.6 °C 46.6 °F /  8.1 °C 30.2in /  1023.7hPa East 6.4mph /  10.3km/h 8.1mph /  13.0km/h 61% 0in /  0.0mm CLR
19:55 59.9 °F /  15.5 °C 46.4 °F /  8.0 °C 30.2in /  1023.7hPa SE 6.4mph /  10.3km/h 10.4mph /  16.7km/h 61% 0in /  0.0mm CLR
20:00 59.7 °F /  15.4 °C 46.2 °F /  7.9 °C 30.2in /  1023.7hPa ESE 6mph /  9.7km/h 12mph /  19.3km/h 61% 0in /  0.0mm CLR
20:05 59.7 °F /  15.4 °C 46.2 °F /  7.9 °C 30.2in /  1024.2hPa East 6.2mph /  10.0km/h 13.8mph /  22.2km/h 61% 0in /  0.0mm CLR
20:10 59.5 °F /  15.3 °C 46.6 °F /  8.1 °C 30.2in /  1024.2hPa ENE 7.4mph /  11.9km/h 10.4mph /  16.7km/h 62% 0in /  0.0mm CLR
20:15 59.5 °F /  15.3 °C 46.6 °F /  8.1 °C 30.2in /  1024.2hPa East 7.4mph /  11.9km/h 15mph /  24.1km/h 62% 0in /  0.0mm CLR
20:20 59.5 °F /  15.3 °C 46.9 °F /  8.3 °C 30.3in /  1024.4hPa ESE 8.1mph /  13.0km/h 10.4mph /  16.7km/h 63% 0in /  0.0mm CLR
20:25 59.4 °F /  15.2 °C 47.1 °F /  8.4 °C 30.3in /  1024.4hPa East 8.1mph /  13.0km/h 5.8mph /  9.3km/h 64% 0in /  0.0mm CLR
20:30 59.2 °F /  15.1 °C 46.9 °F /  8.3 °C 30.3in /  1024.4hPa NE 5.4mph /  8.7km/h 4.7mph /  7.6km/h 64% 0in /  0.0mm CLR
20:35 59.2 °F /  15.1 °C 46.9 °F /  8.3 °C 30.3in /  1024.8hPa ENE 5.4mph /  8.7km/h 6.2mph /  10.0km/h 64% 0in /  0.0mm CLR
20:40 59 °F /  15.0 °C 47.1 °F /  8.4 °C 30.3in /  1024.8hPa ENE 4.3mph /  6.9km/h 6.9mph /  11.1km/h 65% 0in /  0.0mm CLR
20:45 58.6 °F /  14.8 °C 46.6 °F /  8.1 °C 30.3in /  1024.8hPa NE 4.3mph /  6.9km/h 5.9mph /  9.5km/h 64% 0in /  0.0mm CLR
20:50 57.9 °F /  14.4 °C 46.2 °F /  7.9 °C 30.3in /  1025.0hPa NE 5.2mph /  8.4km/h 8.1mph /  13.0km/h 65% 0in /  0.0mm CLR
20:55 57.7 °F /  14.3 °C 46.6 °F /  8.1 °C 30.3in /  1025.0hPa NNE 5.2mph /  8.4km/h 5.8mph /  9.3km/h 66% 0in /  0.0mm CLR
21:00 57.6 °F /  14.2 °C 46.4 °F /  8.0 °C 30.3in /  1025.0hPa NE 5mph /  8.0km/h 7mph /  11.3km/h 66% 0in /  0.0mm CLR
21:05 57.4 °F /  14.1 °C 46 °F /  7.8 °C 30.3in /  1025.3hPa NE 4.7mph /  7.6km/h 8.1mph /  13.0km/h 66% 0in /  0.0mm CLR
21:10 57 °F /  13.9 °C 46.2 °F /  7.9 °C 30.3in /  1025.3hPa NE 5.9mph /  9.5km/h 8.1mph /  13.0km/h 67% 0in /  0.0mm CLR
21:15 57 °F /  13.9 °C 46.2 °F /  7.9 °C 30.3in /  1025.3hPa NE 5.9mph /  9.5km/h 6.9mph /  11.1km/h 67% 0in /  0.0mm CLR
21:20 56.8 °F /  13.8 °C 46.4 °F /  8.0 °C 30.3in /  1025.5hPa NE 5.9mph /  9.5km/h 5.8mph /  9.3km/h 68% 0in /  0.0mm CLR
21:25 56.8 °F /  13.8 °C 46.4 °F /  8.0 °C 30.3in /  1025.5hPa ENE 5.9mph /  9.5km/h 4.6mph /  7.4km/h 68% 0in /  0.0mm CLR
21:30 57 °F /  13.9 °C 46.9 °F /  8.3 °C 30.3in /  1025.5hPa NE 4mph /  6.4km/h 4.6mph /  7.4km/h 69% 0in /  0.0mm CLR
21:35 57 °F /  13.9 °C 46.9 °F /  8.3 °C 30.3in /  1025.5hPa NE 4mph /  6.4km/h 4.6mph /  7.4km/h 69% 0in /  0.0mm CLR
21:40 57 °F /  13.9 °C 46.9 °F /  8.3 °C 30.3in /  1025.5hPa NNE 3.1mph /  5.0km/h 4mph /  6.4km/h 69% 0in /  0.0mm CLR
21:45 56.7 °F /  13.7 °C 46.2 °F /  7.9 °C 30.3in /  1025.5hPa NE 3.1mph /  5.0km/h 5.8mph /  9.3km/h 68% 0in /  0.0mm CLR
21:50 56.1 °F /  13.4 °C 46 °F /  7.8 °C 30.3in /  1025.6hPa NNE 4mph /  6.4km/h 5.8mph /  9.3km/h 69% 0in /  0.0mm CLR
21:55 55.8 °F /  13.2 °C 46 °F /  7.8 °C 30.3in /  1025.6hPa NE 4mph /  6.4km/h 5.8mph /  9.3km/h 70% 0in /  0.0mm CLR
22:00 55.9 °F /  13.3 °C 46.2 °F /  7.9 °C 30.3in /  1025.6hPa NE 5mph /  8.0km/h 6mph /  9.7km/h 70% 0in /  0.0mm CLR
22:05 55.9 °F /  13.3 °C 46.8 °F /  8.2 °C 30.3in /  1025.6hPa NE 4mph /  6.4km/h 4.6mph /  7.4km/h 71% 0in /  0.0mm CLR
22:10 55.9 °F /  13.3 °C 46.8 °F /  8.2 °C 30.3in /  1025.6hPa NE 2.9mph /  4.7km/h 2.3mph /  3.7km/h 71% 0in /  0.0mm CLR
22:15 55.9 °F /  13.3 °C 46.8 °F /  8.2 °C 30.3in /  1025.6hPa NE 2.9mph /  4.7km/h 4.6mph /  7.4km/h 71% 0in /  0.0mm CLR
22:20 56.1 °F /  13.4 °C 46.6 °F /  8.1 °C 30.3in /  1025.9hPa NE 2.4mph /  3.9km/h 2.3mph /  3.7km/h 70% 0in /  0.0mm CLR
22:25 55.9 °F /  13.3 °C 46.2 °F /  7.9 °C 30.3in /  1025.9hPa NE 2.4mph /  3.9km/h 1.2mph /  1.9km/h 70% 0in /  0.0mm CLR
22:30 55.9 °F /  13.3 °C 46.2 °F /  7.9 °C 30.3in /  1025.9hPa Calm   4.6mph /  7.4km/h 70% 0in /  0.0mm CLR
22:35 55.6 °F /  13.1 °C 46.2 °F /  7.9 °C 30.3in /  1026.1hPa Calm   4.6mph /  7.4km/h 71% 0in /  0.0mm CLR
22:40 55.4 °F /  13.0 °C 46.2 °F /  7.9 °C 30.3in /  1026.1hPa NNW 3.1mph /  5.0km/h 4.6mph /  7.4km/h 71% 0in /  0.0mm CLR
22:45 55 °F /  12.8 °C 45.9 °F /  7.7 °C 30.3in /  1026.1hPa NNW 3.1mph /  5.0km/h 3.5mph /  5.6km/h 71% 0in /  0.0mm CLR
22:50 54.9 °F /  12.7 °C 45.7 °F /  7.6 °C 30.3in /  1026.2hPa NNW 2mph /  3.2km/h 3.5mph /  5.6km/h 71% 0in /  0.0mm CLR
22:55 54.7 °F /  12.6 °C 45.9 °F /  7.7 °C 30.3in /  1026.2hPa NE 2mph /  3.2km/h 5.2mph /  8.4km/h 72% 0in /  0.0mm CLR
23:00 54.3 °F /  12.4 °C 45.3 °F /  7.4 °C 30.3in /  1026.2hPa North 3mph /  4.8km/h 8mph /  12.9km/h 72% 0in /  0.0mm CLR
23:05 54.1 °F /  12.3 °C 45.7 °F /  7.6 °C 30.3in /  1026.2hPa NNE 3.1mph /  5.0km/h 5.8mph /  9.3km/h 73% 0in /  0.0mm CLR
23:10 54.1 °F /  12.3 °C 45.7 °F /  7.6 °C 30.3in /  1026.2hPa NE 2.9mph /  4.7km/h 3.6mph /  5.8km/h 73% 0in /  0.0mm CLR
23:15 54.1 °F /  12.3 °C 45.7 °F /  7.6 °C 30.3in /  1026.2hPa NE 2.9mph /  4.7km/h 5.8mph /  9.3km/h 73% 0in /  0.0mm CLR
23:20 54.1 °F /  12.3 °C 45.7 °F /  7.6 °C 30.3in /  1026.3hPa NE 3.1mph /  5.0km/h 5.8mph /  9.3km/h 73% 0in /  0.0mm CLR
23:25 54.1 °F /  12.3 °C 45.7 °F /  7.6 °C 30.3in /  1026.3hPa NE 3.1mph /  5.0km/h 4.6mph /  7.4km/h 73% 0in /  0.0mm CLR
23:30 54.1 °F /  12.3 °C 45.7 °F /  7.6 °C 30.3in /  1026.3hPa NE 3.6mph /  5.8km/h 4.6mph /  7.4km/h 73% 0in /  0.0mm CLR
23:35 54.1 °F /  12.3 °C 45.7 °F /  7.6 °C 30.3in /  1026.3hPa NE 3.6mph /  5.8km/h 3.5mph /  5.6km/h 73% 0in /  0.0mm CLR
23:40 54.1 °F /  12.3 °C 45.7 °F /  7.6 °C 30.3in /  1026.3hPa NE 2.9mph /  4.7km/h 2.4mph /  3.9km/h 73% 0in /  0.0mm CLR
23:45 54.1 °F /  12.3 °C 45.7 °F /  7.6 °C 30.3in /  1026.3hPa NE 2.9mph /  4.7km/h 2.4mph /  3.9km/h 73% 0in /  0.0mm CLR
23:50 54.1 °F /  12.3 °C 45.3 °F /  7.4 °C 30.3in /  1026.4hPa ENE 1.8mph /  2.9km/h 3.5mph /  5.6km/h 72% 0in /  0.0mm CLR
23:55 54 °F /  12.2 °C 45.5 °F /  7.5 °C 30.3in /  1026.4hPa ENE 1.8mph /  2.9km/h 4.6mph /  7.4km/h 73% 0in /  0.0mm CLR
Murcia-Puente Tocinos, España
Compliments of Weather Underground - 2.75 mb

La estación de MeteoMurcia.com, publica sus datos en los siguientes proyectos:

Weather Underground PWS IMURCIAP2 Meteoclimatic www.awekas.at

W3Counter
Web Analytics